Portada
METAR-TAF:

METAR-TAF

Aeroports :

Pamplona, Espanya

latitud: 42-46N, longitud: 001-38W, altitud: 459 m

Observació

L'informe es va fer fa 34 minuts, a les 05:00 UTC
Vent 3 kt del Nord-Est
Temperatura 10°C
Humitat 82%
Pressió 1018 hPa
Visibilitat 10 km o més
Cel ennuvolat a una alçada de 3000 ft

METAR: LEPP 190500Z 05003KT 9999 BKN030 10/07 Q1018

Hora: 07:34 (05:34 UTC)

Pronòstic

L'informe es va fer fa 3 hores i 34 minuts, a les 02:00 UTC
Pronòstic vàlid del 19 a les 03 UTC al 20 a les 03 UTC
Vent 5 kt amb direcció variable
Visibilitat 10 km o més
Núvols disperses a una alçada de 3000 ft
Probabilitat 40% :
Temporalment
l' 19 a les 03 UTC al 19 a les 09 UTC
Visibilitat: 3000 m
Cel ennuvolat a una alçada de 1000 ft
pluja

TAF: LEPP 190200Z 1903/2003 VRB05KT 9999 SCT030 TX23/1914Z TN08/1906Z PROB40 TEMPO 1903/1909 3000 -RA BKN010

Observacions i pronòstics meteorològics de més de 4000 aeroports (METAR i TAF).

Les estacions disponibles són els punts grocs i vermells al mapa.

Posi el ratolí al punt desitjat per veure el nom de l'estació.

Feu clic per veure les observacions i els pronòstics meteorològics.

Per canviar el mapa: feu clic els botons verds amb una creu de color negre per apropar; al botó verd amb un guió per allunyar la imatge; o en les fletxes verdes per a mapes adjacents.


METAR-TAF: